sensor_id;sensor_type;location;lat;lon;timestamp;pressure;altitude;pressure_sealevel;temperature;humidity
37291;BME280;23175;-33.706;151.094;2022-12-24T00:00:35;99240.42;;;25.82;30.70
37291;BME280;23175;-33.706;151.094;2022-12-24T00:03:05;99239.55;;;26.55;29.48
37291;BME280;23175;-33.706;151.094;2022-12-24T00:05:36;99234.41;;;24.69;32.30
37291;BME280;23175;-33.706;151.094;2022-12-24T00:08:07;99236.60;;;25.08;31.19
37291;BME280;23175;-33.706;151.094;2022-12-24T00:10:36;99231.87;;;23.52;32.07
37291;BME280;23175;-33.706;151.094;2022-12-24T00:13:07;99240.31;;;27.26;29.19
37291;BME280;23175;-33.706;151.094;2022-12-24T00:15:37;99232.16;;;26.61;29.14
37291;BME280;23175;-33.706;151.094;2022-12-24T00:18:07;99234.25;;;28.80;26.70
37291;BME280;23175;-33.706;151.094;2022-12-24T00:20:36;99228.35;;;24.06;31.29
37291;BME280;23175;-33.706;151.094;2022-12-24T00:23:07;99229.88;;;24.64;31.72
37291;BME280;23175;-33.706;151.094;2022-12-24T00:25:38;99227.88;;;25.49;29.80
37291;BME280;23175;-33.706;151.094;2022-12-24T00:28:08;99229.20;;;27.24;28.39
37291;BME280;23175;-33.706;151.094;2022-12-24T00:30:39;99228.76;;;25.62;29.86
37291;BME280;23175;-33.706;151.094;2022-12-24T00:33:10;99221.87;;;25.21;28.97
37291;BME280;23175;-33.706;151.094;2022-12-24T00:35:41;99223.24;;;26.54;27.16
37291;BME280;23175;-33.706;151.094;2022-12-24T00:38:10;99225.08;;;25.33;28.08
37291;BME280;23175;-33.706;151.094;2022-12-24T00:40:40;99224.07;;;28.56;25.65
37291;BME280;23175;-33.706;151.094;2022-12-24T00:43:10;99223.57;;;26.89;27.23
37291;BME280;23175;-33.706;151.094;2022-12-24T00:45:40;99215.14;;;25.11;27.82
37291;BME280;23175;-33.706;151.094;2022-12-24T00:48:10;99217.65;;;24.21;28.61
37291;BME280;23175;-33.706;151.094;2022-12-24T00:50:40;99221.22;;;25.75;27.48
37291;BME280;23175;-33.706;151.094;2022-12-24T00:53:10;99216.62;;;26.53;26.44
37291;BME280;23175;-33.706;151.094;2022-12-24T00:55:39;99209.54;;;27.29;25.83
37291;BME280;23175;-33.706;151.094;2022-12-24T00:58:09;99211.20;;;25.11;27.75
37291;BME280;23175;-33.706;151.094;2022-12-24T01:00:39;99213.19;;;27.15;26.74
37291;BME280;23175;-33.706;151.094;2022-12-24T01:03:09;99206.65;;;25.77;25.83
37291;BME280;23175;-33.706;151.094;2022-12-24T01:05:39;99207.03;;;27.87;23.57
37291;BME280;23175;-33.706;151.094;2022-12-24T01:08:09;99203.80;;;27.13;24.26
37291;BME280;23175;-33.706;151.094;2022-12-24T01:10:39;99203.80;;;27.33;24.47
37291;BME280;23175;-33.706;151.094;2022-12-24T01:13:08;99205.06;;;27.23;25.21
37291;BME280;23175;-33.706;151.094;2022-12-24T01:15:38;99198.17;;;24.99;26.97
37291;BME280;23175;-33.706;151.094;2022-12-24T01:18:08;99202.00;;;28.06;22.64
37291;BME280;23175;-33.706;151.094;2022-12-24T01:20:38;99200.13;;;26.87;23.48
37291;BME280;23175;-33.706;151.094;2022-12-24T01:23:08;99192.28;;;26.84;23.25
37291;BME280;23175;-33.706;151.094;2022-12-24T01:25:38;99192.84;;;27.68;22.36
37291;BME280;23175;-33.706;151.094;2022-12-24T01:28:08;99187.99;;;27.57;22.67
37291;BME280;23175;-33.706;151.094;2022-12-24T01:30:40;99189.13;;;26.18;24.15
37291;BME280;23175;-33.706;151.094;2022-12-24T01:33:15;99181.03;;;28.78;22.23
37291;BME280;23175;-33.706;151.094;2022-12-24T01:35:45;99179.67;;;27.24;24.62
37291;BME280;23175;-33.706;151.094;2022-12-24T01:38:15;99179.82;;;28.53;23.06
37291;BME280;23175;-33.706;151.094;2022-12-24T01:40:44;99172.06;;;27.08;23.67
37291;BME280;23175;-33.706;151.094;2022-12-24T01:43:18;99161.92;;;27.48;22.69
37291;BME280;23175;-33.706;151.094;2022-12-24T01:45:51;99165.10;;;28.32;22.62
37291;BME280;23175;-33.706;151.094;2022-12-24T01:48:30;99159.05;;;28.92;21.78
37291;BME280;23175;-33.706;151.094;2022-12-24T01:51:10;99148.97;;;24.92;22.20
37291;BME280;23175;-33.706;151.094;2022-12-24T01:53:51;99155.75;;;26.72;21.31
37291;BME280;23175;-33.706;151.094;2022-12-24T01:56:24;99152.95;;;26.22;21.09
37291;BME280;23175;-33.706;151.094;2022-12-24T01:58:59;99154.60;;;29.13;21.08
37291;BME280;23175;-33.706;151.094;2022-12-24T02:01:31;99151.68;;;26.45;21.84
37291;BME280;23175;-33.706;151.094;2022-12-24T02:04:02;99154.58;;;26.20;21.24
37291;BME280;23175;-33.706;151.094;2022-12-24T02:06:33;99146.78;;;28.27;19.47
37291;BME280;23175;-33.706;151.094;2022-12-24T02:09:04;99136.20;;;26.26;20.49
37291;BME280;23175;-33.706;151.094;2022-12-24T02:11:35;99136.81;;;29.63;18.95
37291;BME280;23175;-33.706;151.094;2022-12-24T02:14:07;99142.42;;;28.15;20.96
37291;BME280;23175;-33.706;151.094;2022-12-24T02:16:44;99134.12;;;29.55;21.44
37291;BME280;23175;-33.706;151.094;2022-12-24T02:19:35;99129.73;;;28.12;21.90
37291;BME280;23175;-33.706;151.094;2022-12-24T02:22:13;99131.54;;;28.10;22.07
37291;BME280;23175;-33.706;151.094;2022-12-24T02:26:03;99133.47;;;31.09;18.65
37291;BME280;23175;-33.706;151.094;2022-12-24T02:29:00;99119.82;;;27.81;20.54
37291;BME280;23175;-33.706;151.094;2022-12-24T02:31:39;99125.73;;;29.65;21.37
37291;BME280;23175;-33.706;151.094;2022-12-24T02:34:17;99136.24;;;25.64;30.56
37291;BME280;23175;-33.706;151.094;2022-12-24T02:36:57;99136.08;;;27.04;29.72
37291;BME280;23175;-33.706;151.094;2022-12-24T02:39:35;99130.32;;;27.01;29.83
37291;BME280;23175;-33.706;151.094;2022-12-24T02:42:13;99126.74;;;29.41;27.38
37291;BME280;23175;-33.706;151.094;2022-12-24T02:44:47;99125.69;;;29.90;26.70
37291;BME280;23175;-33.706;151.094;2022-12-24T02:47:19;99118.63;;;27.58;28.65
37291;BME280;23175;-33.706;151.094;2022-12-24T02:49:51;99116.39;;;27.02;29.29
37291;BME280;23175;-33.706;151.094;2022-12-24T02:52:38;99115.84;;;26.03;30.35
37291;BME280;23175;-33.706;151.094;2022-12-24T02:55:12;99112.13;;;28.66;27.67
37291;BME280;23175;-33.706;151.094;2022-12-24T02:57:53;99115.65;;;26.58;30.48
37291;BME280;23175;-33.706;151.094;2022-12-24T03:00:31;99110.29;;;26.02;31.63
37291;BME280;23175;-33.706;151.094;2022-12-24T03:03:21;99109.89;;;27.20;30.46
37291;BME280;23175;-33.706;151.094;2022-12-24T03:06:03;99099.80;;;25.98;31.54
37291;BME280;23175;-33.706;151.094;2022-12-24T03:08:44;99100.92;;;27.85;29.53
37291;BME280;23175;-33.706;151.094;2022-12-24T03:11:18;99097.82;;;24.10;32.22
37291;BME280;23175;-33.706;151.094;2022-12-24T03:13:49;99102.29;;;26.07;30.90
37291;BME280;23175;-33.706;151.094;2022-12-24T03:16:23;99099.18;;;25.44;31.49
37291;BME280;23175;-33.706;151.094;2022-12-24T03:18:58;99101.88;;;25.88;31.09
37291;BME280;23175;-33.706;151.094;2022-12-24T03:21:32;99104.88;;;27.38;28.93
37291;BME280;23175;-33.706;151.094;2022-12-24T03:24:04;99102.25;;;28.04;28.95
37291;BME280;23175;-33.706;151.094;2022-12-24T03:26:34;99103.52;;;27.83;29.27
37291;BME280;23175;-33.706;151.094;2022-12-24T03:29:07;99108.45;;;27.27;29.86
37291;BME280;23175;-33.706;151.094;2022-12-24T03:31:43;99100.02;;;26.47;31.07
37291;BME280;23175;-33.706;151.094;2022-12-24T03:34:15;99097.04;;;27.75;29.25
37291;BME280;23175;-33.706;151.094;2022-12-24T03:36:45;99089.23;;;27.93;29.14
37291;BME280;23175;-33.706;151.094;2022-12-24T03:39:16;99084.51;;;28.22;28.60
37291;BME280;23175;-33.706;151.094;2022-12-24T03:41:48;99078.21;;;26.41;31.20
37291;BME280;23175;-33.706;151.094;2022-12-24T03:44:18;99081.18;;;25.69;31.57
37291;BME280;23175;-33.706;151.094;2022-12-24T03:46:48;99077.85;;;26.60;31.06
37291;BME280;23175;-33.706;151.094;2022-12-24T03:49:18;99066.62;;;27.64;30.15
37291;BME280;23175;-33.706;151.094;2022-12-24T03:51:48;99069.15;;;27.24;30.78
37291;BME280;23175;-33.706;151.094;2022-12-24T03:54:17;99063.17;;;27.72;29.75
37291;BME280;23175;-33.706;151.094;2022-12-24T03:56:47;99062.74;;;25.17;30.98
37291;BME280;23175;-33.706;151.094;2022-12-24T03:59:18;99059.45;;;25.32;31.74
37291;BME280;23175;-33.706;151.094;2022-12-24T04:01:47;99058.84;;;25.42;32.22
37291;BME280;23175;-33.706;151.094;2022-12-24T04:04:17;99058.99;;;27.13;30.68
37291;BME280;23175;-33.706;151.094;2022-12-24T04:06:48;99054.74;;;27.07;29.84
37291;BME280;23175;-33.706;151.094;2022-12-24T04:09:17;99045.78;;;27.40;28.95
37291;BME280;23175;-33.706;151.094;2022-12-24T04:11:47;99049.00;;;27.15;28.84
37291;BME280;23175;-33.706;151.094;2022-12-24T04:14:18;99051.72;;;26.98;28.11
37291;BME280;23175;-33.706;151.094;2022-12-24T04:16:48;99046.15;;;26.17;27.69
37291;BME280;23175;-33.706;151.094;2022-12-24T04:19:19;99041.65;;;25.62;28.99
37291;BME280;23175;-33.706;151.094;2022-12-24T04:21:52;99037.19;;;25.89;28.05
37291;BME280;23175;-33.706;151.094;2022-12-24T04:24:22;99044.77;;;26.44;26.54
37291;BME280;23175;-33.706;151.094;2022-12-24T04:26:52;99044.59;;;27.06;26.74
37291;BME280;23175;-33.706;151.094;2022-12-24T04:29:22;99040.10;;;27.46;26.57
37291;BME280;23175;-33.706;151.094;2022-12-24T04:31:52;99044.85;;;26.14;27.88
37291;BME280;23175;-33.706;151.094;2022-12-24T04:34:22;99036.59;;;27.78;26.49
37291;BME280;23175;-33.706;151.094;2022-12-24T04:36:51;99046.92;;;27.16;26.96
37291;BME280;23175;-33.706;151.094;2022-12-24T04:39:21;99047.08;;;27.78;26.55
37291;BME280;23175;-33.706;151.094;2022-12-24T04:41:52;99050.49;;;25.98;28.23
37291;BME280;23175;-33.706;151.094;2022-12-24T04:44:21;99053.18;;;27.25;26.46
37291;BME280;23175;-33.706;151.094;2022-12-24T04:46:51;99045.85;;;27.59;25.50
37291;BME280;23175;-33.706;151.094;2022-12-24T04:49:21;99055.73;;;27.40;25.90
37291;BME280;23175;-33.706;151.094;2022-12-24T04:51:51;99061.01;;;26.60;27.78
37291;BME280;23175;-33.706;151.094;2022-12-24T04:54:21;99069.18;;;26.46;28.80
37291;BME280;23175;-33.706;151.094;2022-12-24T04:56:50;99069.73;;;26.92;29.04
37291;BME280;23175;-33.706;151.094;2022-12-24T04:59:25;99062.41;;;26.57;29.72
37291;BME280;23175;-33.706;151.094;2022-12-24T05:01:55;99062.00;;;25.50;29.77
37291;BME280;23175;-33.706;151.094;2022-12-24T05:04:25;99069.11;;;26.12;29.92
37291;BME280;23175;-33.706;151.094;2022-12-24T05:06:55;99071.86;;;25.23;31.28
37291;BME280;23175;-33.706;151.094;2022-12-24T05:09:25;99074.41;;;25.74;29.64
37291;BME280;23175;-33.706;151.094;2022-12-24T05:11:55;99076.58;;;27.53;27.97
37291;BME280;23175;-33.706;151.094;2022-12-24T05:14:25;99075.80;;;24.19;31.24
37291;BME280;23175;-33.706;151.094;2022-12-24T05:16:54;99078.70;;;25.75;29.80
37291;BME280;23175;-33.706;151.094;2022-12-24T05:19:25;99081.58;;;23.97;30.72
37291;BME280;23175;-33.706;151.094;2022-12-24T05:21:55;99077.10;;;24.41;30.65
37291;BME280;23175;-33.706;151.094;2022-12-24T05:24:25;99077.55;;;24.79;29.95
37291;BME280;23175;-33.706;151.094;2022-12-24T05:26:56;99082.05;;;24.66;29.93
37291;BME280;23175;-33.706;151.094;2022-12-24T05:29:26;99084.85;;;25.06;29.90
37291;BME280;23175;-33.706;151.094;2022-12-24T05:31:57;99085.04;;;26.37;27.65
37291;BME280;23175;-33.706;151.094;2022-12-24T05:34:27;99089.87;;;24.85;29.08
37291;BME280;23175;-33.706;151.094;2022-12-24T05:36:57;99090.31;;;25.73;28.09
37291;BME280;23175;-33.706;151.094;2022-12-24T05:39:27;99095.81;;;25.00;27.25
37291;BME280;23175;-33.706;151.094;2022-12-24T05:41:57;99092.69;;;26.23;27.51
37291;BME280;23175;-33.706;151.094;2022-12-24T05:44:26;99089.64;;;26.01;26.20
37291;BME280;23175;-33.706;151.094;2022-12-24T05:46:56;99090.93;;;25.33;27.17
37291;BME280;23175;-33.706;151.094;2022-12-24T05:49:26;99072.13;;;24.47;27.00
37291;BME280;23175;-33.706;151.094;2022-12-24T05:51:56;99079.66;;;25.85;25.66
37291;BME280;23175;-33.706;151.094;2022-12-24T05:54:26;99078.79;;;25.49;25.58
37291;BME280;23175;-33.706;151.094;2022-12-24T05:56:56;99076.02;;;24.68;26.81
37291;BME280;23175;-33.706;151.094;2022-12-24T05:59:26;99087.40;;;24.04;26.47
37291;BME280;23175;-33.706;151.094;2022-12-24T06:01:55;99081.41;;;25.07;25.26
37291;BME280;23175;-33.706;151.094;2022-12-24T06:04:25;99080.05;;;26.32;25.37
37291;BME280;23175;-33.706;151.094;2022-12-24T06:06:55;99084.78;;;25.33;25.43
37291;BME280;23175;-33.706;151.094;2022-12-24T06:09:25;99085.24;;;25.19;25.37
37291;BME280;23175;-33.706;151.094;2022-12-24T06:11:55;99084.99;;;25.00;25.08
37291;BME280;23175;-33.706;151.094;2022-12-24T06:14:25;99082.73;;;24.48;25.70
37291;BME280;23175;-33.706;151.094;2022-12-24T06:16:55;99085.74;;;23.95;25.66
37291;BME280;23175;-33.706;151.094;2022-12-24T06:19:26;99081.11;;;24.80;25.47
37291;BME280;23175;-33.706;151.094;2022-12-24T06:21:56;99087.98;;;25.91;23.86
37291;BME280;23175;-33.706;151.094;2022-12-24T06:24:26;99080.08;;;24.05;25.82
37291;BME280;23175;-33.706;151.094;2022-12-24T06:26:56;99080.19;;;25.17;25.29
37291;BME280;23175;-33.706;151.094;2022-12-24T06:29:26;99083.53;;;25.67;25.15
37291;BME280;23175;-33.706;151.094;2022-12-24T06:31:55;99087.38;;;26.07;24.33
37291;BME280;23175;-33.706;151.094;2022-12-24T06:34:25;99085.15;;;24.25;25.81
37291;BME280;23175;-33.706;151.094;2022-12-24T06:36:55;99085.38;;;25.26;25.04
37291;BME280;23175;-33.706;151.094;2022-12-24T06:39:25;99086.77;;;26.34;24.23
37291;BME280;23175;-33.706;151.094;2022-12-24T06:41:55;99082.82;;;26.09;24.23
37291;BME280;23175;-33.706;151.094;2022-12-24T06:44:25;99086.47;;;27.98;22.53
37291;BME280;23175;-33.706;151.094;2022-12-24T06:46:55;99090.49;;;26.20;24.15
37291;BME280;23175;-33.706;151.094;2022-12-24T06:49:24;99095.26;;;26.87;23.28
37291;BME280;23175;-33.706;151.094;2022-12-24T06:51:54;99096.30;;;24.99;25.25
37291;BME280;23175;-33.706;151.094;2022-12-24T06:54:24;99099.12;;;26.69;23.27
37291;BME280;23175;-33.706;151.094;2022-12-24T06:56:54;99098.69;;;25.99;24.30
37291;BME280;23175;-33.706;151.094;2022-12-24T06:59:24;99103.14;;;25.83;24.54
37291;BME280;23175;-33.706;151.094;2022-12-24T07:01:55;99108.74;;;25.05;25.01
37291;BME280;23175;-33.706;151.094;2022-12-24T07:04:25;99109.94;;;27.02;23.70
37291;BME280;23175;-33.706;151.094;2022-12-24T07:06:54;99110.11;;;26.24;24.10
37291;BME280;23175;-33.706;151.094;2022-12-24T07:09:24;99114.25;;;26.78;24.14
37291;BME280;23175;-33.706;151.094;2022-12-24T07:11:54;99118.97;;;26.23;23.81
37291;BME280;23175;-33.706;151.094;2022-12-24T07:14:24;99122.76;;;24.74;25.34
37291;BME280;23175;-33.706;151.094;2022-12-24T07:16:54;99120.02;;;25.45;24.15
37291;BME280;23175;-33.706;151.094;2022-12-24T07:19:24;99117.96;;;23.33;26.33
37291;BME280;23175;-33.706;151.094;2022-12-24T07:21:54;99122.38;;;25.69;24.40
37291;BME280;23175;-33.706;151.094;2022-12-24T07:24:24;99130.79;;;24.02;25.65
37291;BME280;23175;-33.706;151.094;2022-12-24T07:26:54;99125.55;;;25.95;23.38
37291;BME280;23175;-33.706;151.094;2022-12-24T07:29:24;99125.66;;;25.46;24.06
37291;BME280;23175;-33.706;151.094;2022-12-24T07:31:54;99129.17;;;26.87;22.64
37291;BME280;23175;-33.706;151.094;2022-12-24T07:34:24;99137.79;;;25.64;23.89
37291;BME280;23175;-33.706;151.094;2022-12-24T07:36:54;99135.78;;;24.76;24.79
37291;BME280;23175;-33.706;151.094;2022-12-24T07:39:24;99141.41;;;23.45;25.52
37291;BME280;23175;-33.706;151.094;2022-12-24T07:41:54;99146.29;;;26.41;23.32
37291;BME280;23175;-33.706;151.094;2022-12-24T07:44:23;99151.70;;;25.36;24.45
37291;BME280;23175;-33.706;151.094;2022-12-24T07:46:54;99153.12;;;25.99;23.68
37291;BME280;23175;-33.706;151.094;2022-12-24T07:49:24;99158.50;;;25.45;24.68
37291;BME280;23175;-33.706;151.094;2022-12-24T07:51:54;99166.26;;;26.44;24.35
37291;BME280;23175;-33.706;151.094;2022-12-24T07:54:24;99171.37;;;27.34;23.52
37291;BME280;23175;-33.706;151.094;2022-12-24T07:56:54;99174.18;;;26.49;24.11
37291;BME280;23175;-33.706;151.094;2022-12-24T07:59:24;99177.41;;;25.79;24.69
37291;BME280;23175;-33.706;151.094;2022-12-24T08:01:53;99184.42;;;26.31;24.68
37291;BME280;23175;-33.706;151.094;2022-12-24T08:04:23;99188.21;;;25.71;24.82
37291;BME280;23175;-33.706;151.094;2022-12-24T08:06:53;99191.12;;;25.78;25.25
37291;BME280;23175;-33.706;151.094;2022-12-24T08:09:23;99197.75;;;25.11;25.50
37291;BME280;23175;-33.706;151.094;2022-12-24T08:11:53;99206.18;;;25.78;25.09
37291;BME280;23175;-33.706;151.094;2022-12-24T08:14:23;99208.43;;;23.14;27.28
37291;BME280;23175;-33.706;151.094;2022-12-24T08:16:53;99217.16;;;22.19;28.41
37291;BME280;23175;-33.706;151.094;2022-12-24T08:19:23;99220.63;;;24.19;26.13
37291;BME280;23175;-33.706;151.094;2022-12-24T08:21:53;99224.95;;;25.46;25.35
37291;BME280;23175;-33.706;151.094;2022-12-24T08:24:23;99236.71;;;25.24;25.84
37291;BME280;23175;-33.706;151.094;2022-12-24T08:26:52;99244.21;;;23.41;27.77
37291;BME280;23175;-33.706;151.094;2022-12-24T08:29:22;99249.11;;;25.12;26.40
37291;BME280;23175;-33.706;151.094;2022-12-24T08:31:52;99250.86;;;26.07;25.41
37291;BME280;23175;-33.706;151.094;2022-12-24T08:34:22;99255.75;;;25.19;26.66
37291;BME280;23175;-33.706;151.094;2022-12-24T08:36:52;99258.85;;;27.07;24.76
37291;BME280;23175;-33.706;151.094;2022-12-24T08:39:22;99259.95;;;26.63;24.91
37291;BME280;23175;-33.706;151.094;2022-12-24T08:41:52;99261.96;;;27.77;24.32
37291;BME280;23175;-33.706;151.094;2022-12-24T08:44:22;99261.60;;;25.23;26.32
37291;BME280;23175;-33.706;151.094;2022-12-24T08:46:52;99264.33;;;26.02;25.60
37291;BME280;23175;-33.706;151.094;2022-12-24T08:49:22;99271.69;;;27.70;24.28
37291;BME280;23175;-33.706;151.094;2022-12-24T08:51:52;99277.96;;;24.94;26.94
37291;BME280;23175;-33.706;151.094;2022-12-24T08:54:22;99285.51;;;22.85;29.14
37291;BME280;23175;-33.706;151.094;2022-12-24T08:56:53;99291.83;;;24.68;27.45
37291;BME280;23175;-33.706;151.094;2022-12-24T08:59:22;99300.04;;;24.94;27.49
37291;BME280;23175;-33.706;151.094;2022-12-24T09:01:52;99302.09;;;27.05;26.00
37291;BME280;23175;-33.706;151.094;2022-12-24T09:04:22;99304.12;;;26.66;26.33
37291;BME280;23175;-33.706;151.094;2022-12-24T09:06:52;99308.32;;;27.50;26.06
37291;BME280;23175;-33.706;151.094;2022-12-24T09:09:22;99312.94;;;24.41;28.73
37291;BME280;23175;-33.706;151.094;2022-12-24T09:11:51;99316.36;;;25.71;28.23
37291;BME280;23175;-33.706;151.094;2022-12-24T09:14:21;99319.86;;;27.83;26.51
37291;BME280;23175;-33.706;151.094;2022-12-24T09:16:51;99320.36;;;25.33;29.44
37291;BME280;23175;-33.706;151.094;2022-12-24T09:19:21;99320.18;;;26.54;28.76
37291;BME280;23175;-33.706;151.094;2022-12-24T09:21:52;99327.01;;;25.51;30.08
37291;BME280;23175;-33.706;151.094;2022-12-24T09:24:22;99331.03;;;26.78;29.12
37291;BME280;23175;-33.706;151.094;2022-12-24T09:26:52;99337.57;;;24.64;30.92
37291;BME280;23175;-33.706;151.094;2022-12-24T09:29:21;99338.26;;;25.79;30.50
37291;BME280;23175;-33.706;151.094;2022-12-24T09:31:51;99339.22;;;24.36;32.07
37291;BME280;23175;-33.706;151.094;2022-12-24T09:34:21;99343.14;;;27.02;29.39
37291;BME280;23175;-33.706;151.094;2022-12-24T09:36:51;99349.01;;;23.38;33.76
37291;BME280;23175;-33.706;151.094;2022-12-24T09:39:21;99360.74;;;23.79;33.13
37291;BME280;23175;-33.706;151.094;2022-12-24T09:41:57;99366.23;;;23.57;33.98
37291;BME280;23175;-33.706;151.094;2022-12-24T09:44:39;99369.48;;;23.71;33.67
37291;BME280;23175;-33.706;151.094;2022-12-24T09:57:37;99384.57;;;23.63;34.98
37291;BME280;23175;-33.706;151.094;2022-12-24T10:00:18;99386.59;;;26.03;32.84
37291;BME280;23175;-33.706;151.094;2022-12-24T10:02:49;99395.38;;;23.78;35.23
37291;BME280;23175;-33.706;151.094;2022-12-24T10:05:28;99400.71;;;25.36;33.56
37291;BME280;23175;-33.706;151.094;2022-12-24T10:08:07;99408.89;;;24.56;34.41
37291;BME280;23175;-33.706;151.094;2022-12-24T10:10:47;99411.86;;;26.12;32.91
37291;BME280;23175;-33.706;151.094;2022-12-24T10:13:27;99415.57;;;24.16;35.60
37291;BME280;23175;-33.706;151.094;2022-12-24T10:16:05;99414.83;;;26.01;33.69
37291;BME280;23175;-33.706;151.094;2022-12-24T10:18:47;99420.85;;;25.30;33.90
37291;BME280;23175;-33.706;151.094;2022-12-24T10:21:26;99423.87;;;26.28;33.63
37291;BME280;23175;-33.706;151.094;2022-12-24T10:24:05;99422.88;;;26.08;33.96
37291;BME280;23175;-33.706;151.094;2022-12-24T10:26:44;99426.49;;;26.06;33.83
37291;BME280;23175;-33.706;151.094;2022-12-24T10:29:18;99431.85;;;23.28;36.45
37291;BME280;23175;-33.706;151.094;2022-12-24T10:31:54;99433.12;;;26.32;33.88
37291;BME280;23175;-33.706;151.094;2022-12-24T10:34:30;99440.40;;;26.08;33.86
37291;BME280;23175;-33.706;151.094;2022-12-24T10:37:03;99444.99;;;25.72;34.75
37291;BME280;23175;-33.706;151.094;2022-12-24T10:39:33;99445.13;;;26.85;33.24
37291;BME280;23175;-33.706;151.094;2022-12-24T10:42:06;99451.76;;;26.93;33.05
37291;BME280;23175;-33.706;151.094;2022-12-24T10:44:36;99452.35;;;26.75;33.34
37291;BME280;23175;-33.706;151.094;2022-12-24T10:47:07;99455.75;;;26.60;33.52
37291;BME280;23175;-33.706;151.094;2022-12-24T10:49:51;99450.50;;;26.28;33.74
37291;BME280;23175;-33.706;151.094;2022-12-24T10:52:29;99450.65;;;26.01;33.67
37291;BME280;23175;-33.706;151.094;2022-12-24T10:55:12;99454.77;;;25.91;33.79
37291;BME280;23175;-33.706;151.094;2022-12-24T10:58:01;99462.26;;;26.02;33.80
37291;BME280;23175;-33.706;151.094;2022-12-24T11:00:31;99466.00;;;26.26;34.07
37291;BME280;23175;-33.706;151.094;2022-12-24T11:03:22;99467.95;;;26.20;34.27
37291;BME280;23175;-33.706;151.094;2022-12-24T11:06:03;99474.50;;;26.12;34.39
37291;BME280;23175;-33.706;151.094;2022-12-24T11:08:35;99472.26;;;26.19;34.43
37291;BME280;23175;-33.706;151.094;2022-12-24T11:11:08;99475.07;;;26.16;34.39
37291;BME280;23175;-33.706;151.094;2022-12-24T11:13:42;99474.18;;;26.20;34.36
37291;BME280;23175;-33.706;151.094;2022-12-24T11:16:20;99482.83;;;25.69;34.62
37291;BME280;23175;-33.706;151.094;2022-12-24T11:18:53;99484.40;;;26.41;34.65
37291;BME280;23175;-33.706;151.094;2022-12-24T11:21:26;99486.46;;;26.07;34.75
37291;BME280;23175;-33.706;151.094;2022-12-24T11:24:01;99484.89;;;25.99;34.96
37291;BME280;23175;-33.706;151.094;2022-12-24T11:26:33;99483.49;;;25.97;35.00
37291;BME280;23175;-33.706;151.094;2022-12-24T11:29:14;99482.01;;;26.19;35.12
37291;BME280;23175;-33.706;151.094;2022-12-24T11:31:44;99481.46;;;25.62;35.53
37291;BME280;23175;-33.706;151.094;2022-12-24T11:34:25;99484.37;;;25.84;35.66
37291;BME280;23175;-33.706;151.094;2022-12-24T11:37:09;99482.94;;;26.19;35.58
37291;BME280;23175;-33.706;151.094;2022-12-24T11:39:48;99482.26;;;25.74;35.43
37291;BME280;23175;-33.706;151.094;2022-12-24T11:42:35;99480.44;;;25.69;35.93
37291;BME280;23175;-33.706;151.094;2022-12-24T11:45:16;99482.71;;;26.17;35.77
37291;BME280;23175;-33.706;151.094;2022-12-24T11:47:47;99479.83;;;26.08;35.79
37291;BME280;23175;-33.706;151.094;2022-12-24T11:50:27;99481.31;;;25.78;35.85
37291;BME280;23175;-33.706;151.094;2022-12-24T11:53:02;99486.70;;;25.72;36.29
37291;BME280;23175;-33.706;151.094;2022-12-24T11:55:41;99493.30;;;25.63;36.43
37291;BME280;23175;-33.706;151.094;2022-12-24T11:58:20;99497.62;;;25.71;36.34
37291;BME280;23175;-33.706;151.094;2022-12-24T12:01:00;99497.75;;;23.09;39.82
37291;BME280;23175;-33.706;151.094;2022-12-24T12:03:35;99498.22;;;23.76;39.81
37291;BME280;23175;-33.706;151.094;2022-12-24T12:06:19;99500.80;;;24.00;39.09
37291;BME280;23175;-33.706;151.094;2022-12-24T12:08:56;99498.41;;;24.88;38.27
37291;BME280;23175;-33.706;151.094;2022-12-24T12:11:28;99504.18;;;24.83;38.08
37291;BME280;23175;-33.706;151.094;2022-12-24T12:14:00;99502.81;;;24.85;37.92
37291;BME280;23175;-33.706;151.094;2022-12-24T12:16:39;99507.86;;;25.38;37.64
37291;BME280;23175;-33.706;151.094;2022-12-24T12:19:14;99518.47;;;25.10;37.15
37291;BME280;23175;-33.706;151.094;2022-12-24T12:21:45;99521.05;;;25.04;37.22
37291;BME280;23175;-33.706;151.094;2022-12-24T12:24:23;99524.53;;;24.76;37.52
37291;BME280;23175;-33.706;151.094;2022-12-24T12:27:04;99528.99;;;24.12;38.22
37291;BME280;23175;-33.706;151.094;2022-12-24T12:29:38;99529.06;;;24.14;38.67
37291;BME280;23175;-33.706;151.094;2022-12-24T12:32:16;99530.51;;;21.02;41.50
37291;BME280;23175;-33.706;151.094;2022-12-24T12:34:57;99533.57;;;24.63;37.96
37291;BME280;23175;-33.706;151.094;2022-12-24T12:37:34;99536.77;;;25.13;37.19
37291;BME280;23175;-33.706;151.094;2022-12-24T12:40:10;99537.71;;;24.10;39.15
37291;BME280;23175;-33.706;151.094;2022-12-24T12:42:41;99548.08;;;20.72;43.88
37291;BME280;23175;-33.706;151.094;2022-12-24T12:45:31;99543.20;;;22.55;41.60
37291;BME280;23175;-33.706;151.094;2022-12-24T12:48:28;99551.59;;;20.27;45.98
37291;BME280;23175;-33.706;151.094;2022-12-24T12:51:09;99545.47;;;22.79;42.97
37291;BME280;23175;-33.706;151.094;2022-12-24T12:53:52;99553.40;;;20.85;46.16
37291;BME280;23175;-33.706;151.094;2022-12-24T12:56:31;99550.44;;;21.76;45.13
37291;BME280;23175;-33.706;151.094;2022-12-24T12:59:07;99553.75;;;23.61;42.93
37291;BME280;23175;-33.706;151.094;2022-12-24T13:01:44;99557.31;;;22.35;44.36
37291;BME280;23175;-33.706;151.094;2022-12-24T13:04:36;99556.92;;;22.40;43.97
37291;BME280;23175;-33.706;151.094;2022-12-24T13:08:14;99557.11;;;23.95;42.42
37291;BME280;23175;-33.706;151.094;2022-12-24T13:11:35;99560.23;;;24.03;42.41